sensor_id;sensor_type;location;lat;lon;timestamp;pressure;altitude;pressure_sealevel;temperature;humidity
26112;BME280;13829;48.990;8.346;2023-07-08T00:00:40;100366.81;;;22.09;50.14
26112;BME280;13829;48.990;8.346;2023-07-08T00:03:08;100364.72;;;21.95;49.36
26112;BME280;13829;48.990;8.346;2023-07-08T00:05:36;100361.38;;;21.90;49.27
26112;BME280;13829;48.990;8.346;2023-07-08T00:08:03;100363.25;;;21.88;49.48
26112;BME280;13829;48.990;8.346;2023-07-08T00:10:30;100351.75;;;22.07;50.96
26112;BME280;13829;48.990;8.346;2023-07-08T00:12:58;100350.38;;;21.96;52.63
26112;BME280;13829;48.990;8.346;2023-07-08T00:15:28;100360.16;;;21.77;53.64
26112;BME280;13829;48.990;8.346;2023-07-08T00:17:56;100354.53;;;21.62;54.03
26112;BME280;13829;48.990;8.346;2023-07-08T00:20:31;100356.75;;;21.51;55.56
26112;BME280;13829;48.990;8.346;2023-07-08T00:25:27;100358.03;;;21.41;56.88
26112;BME280;13829;48.990;8.346;2023-07-08T00:27:54;100362.53;;;21.40;59.33
26112;BME280;13829;48.990;8.346;2023-07-08T00:30:23;100361.41;;;21.24;59.42
26112;BME280;13829;48.990;8.346;2023-07-08T00:32:51;100358.66;;;21.25;59.83
26112;BME280;13829;48.990;8.346;2023-07-08T00:35:22;100363.38;;;21.18;58.76
26112;BME280;13829;48.990;8.346;2023-07-08T00:37:51;100364.00;;;21.25;58.59
26112;BME280;13829;48.990;8.346;2023-07-08T00:40:21;100366.94;;;21.19;58.78
26112;BME280;13829;48.990;8.346;2023-07-08T00:42:48;100372.72;;;21.30;55.41
26112;BME280;13829;48.990;8.346;2023-07-08T00:45:27;100377.97;;;21.33;54.49
26112;BME280;13829;48.990;8.346;2023-07-08T00:48:07;100370.63;;;21.39;52.73
26112;BME280;13829;48.990;8.346;2023-07-08T00:50:35;100370.31;;;21.69;48.69
26112;BME280;13829;48.990;8.346;2023-07-08T00:53:29;100369.00;;;21.99;47.14
26112;BME280;13829;48.990;8.346;2023-07-08T00:56:00;100372.53;;;22.00;46.94
26112;BME280;13829;48.990;8.346;2023-07-08T00:58:35;100370.63;;;22.04;46.92
26112;BME280;13829;48.990;8.346;2023-07-08T01:01:06;100366.06;;;22.06;47.13
26112;BME280;13829;48.990;8.346;2023-07-08T01:03:42;100364.72;;;21.95;47.64
26112;BME280;13829;48.990;8.346;2023-07-08T01:06:10;100364.59;;;21.98;48.12
26112;BME280;13829;48.990;8.346;2023-07-08T01:08:39;100359.91;;;21.83;47.81
26112;BME280;13829;48.990;8.346;2023-07-08T01:11:06;100353.19;;;21.73;47.93
26112;BME280;13829;48.990;8.346;2023-07-08T01:13:40;100347.03;;;21.71;47.42
26112;BME280;13829;48.990;8.346;2023-07-08T01:16:10;100351.56;;;21.69;47.62
26112;BME280;13829;48.990;8.346;2023-07-08T01:18:38;100348.84;;;21.70;47.35
26112;BME280;13829;48.990;8.346;2023-07-08T01:21:28;100349.78;;;21.69;47.27
26112;BME280;13829;48.990;8.346;2023-07-08T01:23:57;100348.16;;;21.65;47.74
26112;BME280;13829;48.990;8.346;2023-07-08T01:26:26;100350.09;;;21.61;47.73
26112;BME280;13829;48.990;8.346;2023-07-08T01:28:55;100350.34;;;21.55;48.12
26112;BME280;13829;48.990;8.346;2023-07-08T01:31:23;100347.69;;;21.55;48.05
26112;BME280;13829;48.990;8.346;2023-07-08T01:33:52;100347.09;;;21.47;48.25
26112;BME280;13829;48.990;8.346;2023-07-08T01:36:20;100347.16;;;21.45;48.00
26112;BME280;13829;48.990;8.346;2023-07-08T01:38:47;100345.53;;;21.41;48.22
26112;BME280;13829;48.990;8.346;2023-07-08T01:41:17;100351.81;;;21.40;48.22
26112;BME280;13829;48.990;8.346;2023-07-08T01:43:44;100346.28;;;21.45;47.88
26112;BME280;13829;48.990;8.346;2023-07-08T01:46:18;100348.16;;;21.43;48.04
26112;BME280;13829;48.990;8.346;2023-07-08T01:48:51;100354.38;;;21.43;48.00
26112;BME280;13829;48.990;8.346;2023-07-08T01:51:19;100351.13;;;21.35;51.58
26112;BME280;13829;48.990;8.346;2023-07-08T01:53:47;100350.09;;;21.17;54.57
26112;BME280;13829;48.990;8.346;2023-07-08T01:56:15;100339.13;;;21.01;55.67
26112;BME280;13829;48.990;8.346;2023-07-08T01:58:43;100336.38;;;20.80;57.26
26112;BME280;13829;48.990;8.346;2023-07-08T02:01:10;100341.28;;;20.67;59.29
26112;BME280;13829;48.990;8.346;2023-07-08T02:03:37;100340.13;;;20.51;60.50
26112;BME280;13829;48.990;8.346;2023-07-08T02:06:05;100351.44;;;20.58;61.30
26112;BME280;13829;48.990;8.346;2023-07-08T02:08:32;100346.25;;;20.53;62.17
26112;BME280;13829;48.990;8.346;2023-07-08T02:10:59;100355.91;;;20.33;63.16
26112;BME280;13829;48.990;8.346;2023-07-08T02:13:27;100356.81;;;20.32;63.86
26112;BME280;13829;48.990;8.346;2023-07-08T02:15:54;100365.59;;;20.11;65.08
26112;BME280;13829;48.990;8.346;2023-07-08T02:18:21;100373.00;;;20.02;66.27
26112;BME280;13829;48.990;8.346;2023-07-08T02:20:52;100371.56;;;19.92;67.52
26112;BME280;13829;48.990;8.346;2023-07-08T02:23:21;100373.69;;;19.81;68.14
26112;BME280;13829;48.990;8.346;2023-07-08T02:25:51;100369.72;;;19.67;68.48
26112;BME280;13829;48.990;8.346;2023-07-08T02:28:18;100377.09;;;19.59;69.10
26112;BME280;13829;48.990;8.346;2023-07-08T02:30:46;100380.66;;;19.58;69.78
26112;BME280;13829;48.990;8.346;2023-07-08T02:33:14;100387.97;;;19.53;70.61
26112;BME280;13829;48.990;8.346;2023-07-08T02:35:43;100393.59;;;19.44;70.84
26112;BME280;13829;48.990;8.346;2023-07-08T02:38:11;100390.00;;;19.45;71.34
26112;BME280;13829;48.990;8.346;2023-07-08T02:40:38;100388.47;;;19.37;71.95
26112;BME280;13829;48.990;8.346;2023-07-08T02:43:04;100387.88;;;19.56;72.05
26112;BME280;13829;48.990;8.346;2023-07-08T02:45:31;100388.06;;;19.50;71.75
26112;BME280;13829;48.990;8.346;2023-07-08T02:48:00;100379.44;;;19.42;71.99
26112;BME280;13829;48.990;8.346;2023-07-08T02:50:27;100385.00;;;19.34;72.20
26112;BME280;13829;48.990;8.346;2023-07-08T02:52:53;100384.41;;;19.26;72.22
26112;BME280;13829;48.990;8.346;2023-07-08T02:55:20;100384.53;;;19.21;74.52
26112;BME280;13829;48.990;8.346;2023-07-08T02:57:47;100386.53;;;19.14;75.72
26112;BME280;13829;48.990;8.346;2023-07-08T03:00:15;100387.44;;;19.13;76.14
26112;BME280;13829;48.990;8.346;2023-07-08T03:02:42;100384.84;;;19.10;75.68
26112;BME280;13829;48.990;8.346;2023-07-08T03:05:10;100376.72;;;19.15;75.56
26112;BME280;13829;48.990;8.346;2023-07-08T03:07:37;100380.47;;;19.07;75.35
26112;BME280;13829;48.990;8.346;2023-07-08T03:10:04;100390.88;;;19.17;76.08
26112;BME280;13829;48.990;8.346;2023-07-08T03:12:32;100389.50;;;19.03;75.88
26112;BME280;13829;48.990;8.346;2023-07-08T03:14:59;100397.38;;;19.08;75.80
26112;BME280;13829;48.990;8.346;2023-07-08T03:17:26;100392.91;;;19.09;75.40
26112;BME280;13829;48.990;8.346;2023-07-08T03:19:53;100395.00;;;18.97;75.98
26112;BME280;13829;48.990;8.346;2023-07-08T03:22:21;100396.13;;;18.88;76.22
26112;BME280;13829;48.990;8.346;2023-07-08T03:24:48;100400.69;;;18.85;76.52
26112;BME280;13829;48.990;8.346;2023-07-08T03:27:15;100395.81;;;19.01;75.55
26112;BME280;13829;48.990;8.346;2023-07-08T03:29:42;100402.09;;;18.98;76.13
26112;BME280;13829;48.990;8.346;2023-07-08T03:32:11;100405.41;;;19.06;77.63
26112;BME280;13829;48.990;8.346;2023-07-08T03:34:39;100394.34;;;19.19;77.36
26112;BME280;13829;48.990;8.346;2023-07-08T03:37:06;100405.41;;;19.06;77.66
26112;BME280;13829;48.990;8.346;2023-07-08T03:39:34;100400.91;;;19.09;77.49
26112;BME280;13829;48.990;8.346;2023-07-08T03:42:01;100398.16;;;19.12;76.92
26112;BME280;13829;48.990;8.346;2023-07-08T03:44:29;100407.91;;;19.11;76.75
26112;BME280;13829;48.990;8.346;2023-07-08T03:46:56;100407.44;;;19.27;77.81
26112;BME280;13829;48.990;8.346;2023-07-08T03:49:23;100404.03;;;19.23;76.63
26112;BME280;13829;48.990;8.346;2023-07-08T03:51:52;100397.63;;;19.29;74.85
26112;BME280;13829;48.990;8.346;2023-07-08T03:54:22;100407.06;;;19.39;74.88
26112;BME280;13829;48.990;8.346;2023-07-08T03:56:51;100407.34;;;19.58;76.31
26112;BME280;13829;48.990;8.346;2023-07-08T03:59:18;100409.47;;;19.75;73.00
26112;BME280;13829;48.990;8.346;2023-07-08T04:01:46;100398.91;;;19.72;73.03
26112;BME280;13829;48.990;8.346;2023-07-08T04:04:15;100403.00;;;19.84;74.27
26112;BME280;13829;48.990;8.346;2023-07-08T04:06:42;100400.16;;;19.88;76.31
26112;BME280;13829;48.990;8.346;2023-07-08T04:09:10;100408.72;;;19.98;77.00
26112;BME280;13829;48.990;8.346;2023-07-08T04:11:37;100410.00;;;20.13;75.41
26112;BME280;13829;48.990;8.346;2023-07-08T04:14:07;100399.75;;;20.26;73.47
26112;BME280;13829;48.990;8.346;2023-07-08T04:16:45;100405.66;;;20.36;72.95
26112;BME280;13829;48.990;8.346;2023-07-08T04:19:14;100407.50;;;20.34;72.14
26112;BME280;13829;48.990;8.346;2023-07-08T04:21:43;100403.00;;;20.36;71.80
26112;BME280;13829;48.990;8.346;2023-07-08T04:24:12;100401.66;;;20.48;71.68
26112;BME280;13829;48.990;8.346;2023-07-08T04:26:40;100406.41;;;20.65;71.08
26112;BME280;13829;48.990;8.346;2023-07-08T04:29:12;100396.16;;;20.78;70.84
26112;BME280;13829;48.990;8.346;2023-07-08T04:31:39;100404.56;;;20.91;70.54
26112;BME280;13829;48.990;8.346;2023-07-08T04:34:08;100399.63;;;21.04;70.83
26112;BME280;13829;48.990;8.346;2023-07-08T04:36:36;100411.16;;;21.06;71.24
26112;BME280;13829;48.990;8.346;2023-07-08T04:39:05;100419.72;;;21.14;71.70
26112;BME280;13829;48.990;8.346;2023-07-08T04:41:32;100426.81;;;21.15;72.56
26112;BME280;13829;48.990;8.346;2023-07-08T04:43:59;100430.13;;;21.22;73.12
26112;BME280;13829;48.990;8.346;2023-07-08T04:46:37;100437.06;;;21.27;74.36
26112;BME280;13829;48.990;8.346;2023-07-08T04:49:05;100451.97;;;21.33;73.31
26112;BME280;13829;48.990;8.346;2023-07-08T04:51:33;100471.91;;;21.48;71.63
26112;BME280;13829;48.990;8.346;2023-07-08T04:54:00;100474.97;;;21.62;71.03
26112;BME280;13829;48.990;8.346;2023-07-08T04:56:37;100479.25;;;21.66;70.91
26112;BME280;13829;48.990;8.346;2023-07-08T04:59:05;100488.59;;;21.78;68.76
26112;BME280;13829;48.990;8.346;2023-07-08T05:01:34;100493.38;;;21.92;67.69
26112;BME280;13829;48.990;8.346;2023-07-08T05:04:02;100513.31;;;22.07;66.60
26112;BME280;13829;48.990;8.346;2023-07-08T05:06:31;100511.66;;;22.25;67.34
26112;BME280;13829;48.990;8.346;2023-07-08T05:08:59;100519.03;;;22.42;66.48
26112;BME280;13829;48.990;8.346;2023-07-08T05:11:26;100526.88;;;22.68;65.55
26112;BME280;13829;48.990;8.346;2023-07-08T05:13:54;100536.31;;;22.97;64.56
26112;BME280;13829;48.990;8.346;2023-07-08T05:16:21;100540.41;;;23.06;61.23
26112;BME280;13829;48.990;8.346;2023-07-08T05:18:49;100529.78;;;23.03;60.12
26112;BME280;13829;48.990;8.346;2023-07-08T05:21:20;100538.38;;;23.11;57.97
26112;BME280;13829;48.990;8.346;2023-07-08T05:23:47;100541.34;;;23.05;57.69
26112;BME280;13829;48.990;8.346;2023-07-08T05:26:17;100528.34;;;23.16;58.44
26112;BME280;13829;48.990;8.346;2023-07-08T05:28:44;100526.69;;;23.33;57.88
26112;BME280;13829;48.990;8.346;2023-07-08T05:31:11;100528.53;;;23.51;57.67
26112;BME280;13829;48.990;8.346;2023-07-08T05:33:38;100531.25;;;23.50;55.60
26112;BME280;13829;48.990;8.346;2023-07-08T05:36:06;100538.16;;;23.74;54.17
26112;BME280;13829;48.990;8.346;2023-07-08T05:38:33;100523.50;;;24.01;53.52
26112;BME280;13829;48.990;8.346;2023-07-08T05:41:00;100533.88;;;24.08;51.89
26112;BME280;13829;48.990;8.346;2023-07-08T05:43:27;100536.13;;;23.99;51.53
26112;BME280;13829;48.990;8.346;2023-07-08T05:45:58;100522.38;;;24.05;51.53
26112;BME280;13829;48.990;8.346;2023-07-08T05:48:25;100519.97;;;24.18;53.00
26112;BME280;13829;48.990;8.346;2023-07-08T05:50:52;100513.94;;;24.13;54.24
26112;BME280;13829;48.990;8.346;2023-07-08T05:53:21;100521.19;;;24.10;54.66
26112;BME280;13829;48.990;8.346;2023-07-08T05:55:48;100512.44;;;24.07;54.19
26112;BME280;13829;48.990;8.346;2023-07-08T05:58:15;100513.78;;;23.98;55.03
26112;BME280;13829;48.990;8.346;2023-07-08T06:00:43;100518.25;;;23.98;56.35
26112;BME280;13829;48.990;8.346;2023-07-08T06:03:10;100525.94;;;23.86;57.18
26112;BME280;13829;48.990;8.346;2023-07-08T06:05:38;100534.16;;;23.83;57.81
26112;BME280;13829;48.990;8.346;2023-07-08T06:08:06;100547.50;;;23.85;58.19
26112;BME280;13829;48.990;8.346;2023-07-08T06:10:42;100549.00;;;23.92;58.49
26112;BME280;13829;48.990;8.346;2023-07-08T06:13:09;100543.66;;;23.90;59.20
26112;BME280;13829;48.990;8.346;2023-07-08T06:15:36;100550.19;;;24.04;59.39
26112;BME280;13829;48.990;8.346;2023-07-08T06:18:03;100549.31;;;24.22;59.89
26112;BME280;13829;48.990;8.346;2023-07-08T06:20:30;100549.69;;;24.50;59.87
26112;BME280;13829;48.990;8.346;2023-07-08T06:22:57;100546.97;;;24.86;59.12
26112;BME280;13829;48.990;8.346;2023-07-08T06:25:24;100559.41;;;25.40;58.71
26112;BME280;13829;48.990;8.346;2023-07-08T06:27:53;100559.38;;;26.52;52.40
26112;BME280;13829;48.990;8.346;2023-07-08T06:30:19;100557.19;;;28.05;47.86
26112;BME280;13829;48.990;8.346;2023-07-08T06:32:46;100555.66;;;29.58;44.52
26112;BME280;13829;48.990;8.346;2023-07-08T06:35:14;100558.94;;;29.51;42.70
26112;BME280;13829;48.990;8.346;2023-07-08T06:37:41;100573.19;;;28.75;43.89
26112;BME280;13829;48.990;8.346;2023-07-08T06:40:09;100569.69;;;28.06;46.44
26112;BME280;13829;48.990;8.346;2023-07-08T06:42:36;100570.91;;;27.29;49.61
26112;BME280;13829;48.990;8.346;2023-07-08T06:45:05;100566.63;;;26.82;50.56
26112;BME280;13829;48.990;8.346;2023-07-08T06:47:32;100575.09;;;26.60;52.09
26112;BME280;13829;48.990;8.346;2023-07-08T06:49:59;100564.63;;;26.39;53.57
26112;BME280;13829;48.990;8.346;2023-07-08T06:52:26;100573.88;;;26.19;55.68
26112;BME280;13829;48.990;8.346;2023-07-08T06:54:53;100575.28;;;26.10;56.72
26112;BME280;13829;48.990;8.346;2023-07-08T06:57:20;100569.34;;;26.19;57.66
26112;BME280;13829;48.990;8.346;2023-07-08T06:59:47;100575.81;;;26.47;58.43
26112;BME280;13829;48.990;8.346;2023-07-08T07:02:15;100574.13;;;26.77;57.06
26112;BME280;13829;48.990;8.346;2023-07-08T07:04:42;100574.16;;;27.06;57.03
26112;BME280;13829;48.990;8.346;2023-07-08T07:07:09;100579.09;;;26.99;54.98
26112;BME280;13829;48.990;8.346;2023-07-08T07:09:37;100578.81;;;27.18;55.03
26112;BME280;13829;48.990;8.346;2023-07-08T07:12:06;100564.41;;;28.31;51.42
26112;BME280;13829;48.990;8.346;2023-07-08T07:14:34;100555.06;;;28.63;49.54
26112;BME280;13829;48.990;8.346;2023-07-08T07:17:01;100561.47;;;28.62;50.46
26112;BME280;13829;48.990;8.346;2023-07-08T07:19:30;100563.66;;;29.60;46.76
26112;BME280;13829;48.990;8.346;2023-07-08T07:21:56;100569.94;;;30.10;44.23
26112;BME280;13829;48.990;8.346;2023-07-08T07:24:24;100570.91;;;29.72;44.63
26112;BME280;13829;48.990;8.346;2023-07-08T07:26:51;100575.38;;;29.48;46.69
26112;BME280;13829;48.990;8.346;2023-07-08T07:29:18;100558.81;;;30.02;45.14
26112;BME280;13829;48.990;8.346;2023-07-08T07:31:47;100566.72;;;30.05;44.04
26112;BME280;13829;48.990;8.346;2023-07-08T07:34:14;100565.06;;;30.87;44.63
26112;BME280;13829;48.990;8.346;2023-07-08T07:36:42;100558.13;;;32.30;41.49
26112;BME280;13829;48.990;8.346;2023-07-08T07:39:09;100559.91;;;32.95;38.33
26112;BME280;13829;48.990;8.346;2023-07-08T07:41:36;100554.66;;;34.45;35.82
26112;BME280;13829;48.990;8.346;2023-07-08T07:44:03;100562.00;;;35.69;34.84
26112;BME280;13829;48.990;8.346;2023-07-08T07:46:30;100555.22;;;36.81;32.56
26112;BME280;13829;48.990;8.346;2023-07-08T07:48:57;100553.97;;;36.94;31.68
26112;BME280;13829;48.990;8.346;2023-07-08T07:51:24;100565.38;;;37.07;31.79
26112;BME280;13829;48.990;8.346;2023-07-08T07:53:53;100554.78;;;37.47;30.06
26112;BME280;13829;48.990;8.346;2023-07-08T07:56:20;100561.78;;;36.44;30.84
26112;BME280;13829;48.990;8.346;2023-07-08T07:58:47;100554.03;;;36.58;30.31
26112;BME280;13829;48.990;8.346;2023-07-08T08:01:14;100566.22;;;37.08;29.19
26112;BME280;13829;48.990;8.346;2023-07-08T08:03:41;100558.06;;;37.50;28.83
26112;BME280;13829;48.990;8.346;2023-07-08T08:06:08;100562.50;;;37.17;29.57
26112;BME280;13829;48.990;8.346;2023-07-08T08:08:35;100563.00;;;36.32;29.47
26112;BME280;13829;48.990;8.346;2023-07-08T08:11:03;100575.19;;;36.47;29.44
26112;BME280;13829;48.990;8.346;2023-07-08T08:13:30;100563.38;;;36.73;28.25
26112;BME280;13829;48.990;8.346;2023-07-08T08:15:58;100576.06;;;36.74;27.81
26112;BME280;13829;48.990;8.346;2023-07-08T08:18:25;100577.84;;;36.83;27.96
26112;BME280;13829;48.990;8.346;2023-07-08T08:20:52;100574.53;;;36.53;28.36
26112;BME280;13829;48.990;8.346;2023-07-08T08:23:19;100584.53;;;36.63;28.49
26112;BME280;13829;48.990;8.346;2023-07-08T08:25:46;100591.75;;;36.64;28.14
26112;BME280;13829;48.990;8.346;2023-07-08T08:28:14;100584.63;;;36.35;28.19
26112;BME280;13829;48.990;8.346;2023-07-08T08:30:41;100595.53;;;35.99;29.40
26112;BME280;13829;48.990;8.346;2023-07-08T08:33:08;100589.47;;;35.67;28.10
26112;BME280;13829;48.990;8.346;2023-07-08T08:35:35;100598.19;;;35.53;29.59
26112;BME280;13829;48.990;8.346;2023-07-08T08:38:03;100593.56;;;35.16;29.02
26112;BME280;13829;48.990;8.346;2023-07-08T08:40:32;100590.19;;;35.32;31.67
26112;BME280;13829;48.990;8.346;2023-07-08T08:43:02;100585.44;;;35.34;30.16
26112;BME280;13829;48.990;8.346;2023-07-08T08:45:41;100595.38;;;35.35;29.29
26112;BME280;13829;48.990;8.346;2023-07-08T08:48:15;100595.09;;;35.38;29.06
26112;BME280;13829;48.990;8.346;2023-07-08T08:50:51;100590.34;;;35.20;29.80
26112;BME280;13829;48.990;8.346;2023-07-08T08:53:22;100588.53;;;35.11;29.65
26112;BME280;13829;48.990;8.346;2023-07-08T08:55:58;100583.66;;;35.05;31.35
26112;BME280;13829;48.990;8.346;2023-07-08T08:58:35;100593.56;;;35.06;29.53
26112;BME280;13829;48.990;8.346;2023-07-08T09:01:11;100582.84;;;34.65;28.93
26112;BME280;13829;48.990;8.346;2023-07-08T09:03:47;100596.91;;;34.51;30.58
26112;BME280;13829;48.990;8.346;2023-07-08T09:06:20;100594.59;;;34.17;29.90
26112;BME280;13829;48.990;8.346;2023-07-08T09:08:50;100595.84;;;34.12;29.18
26112;BME280;13829;48.990;8.346;2023-07-08T09:11:27;100596.53;;;33.85;29.23
26112;BME280;13829;48.990;8.346;2023-07-08T09:13:59;100604.50;;;33.77;31.48
26112;BME280;13829;48.990;8.346;2023-07-08T09:16:43;100595.06;;;33.50;29.99
26112;BME280;13829;48.990;8.346;2023-07-08T09:19:14;100597.16;;;33.37;31.96
26112;BME280;13829;48.990;8.346;2023-07-08T09:21:47;100589.47;;;33.42;32.20
26112;BME280;13829;48.990;8.346;2023-07-08T09:24:21;100590.25;;;33.32;33.24
26112;BME280;13829;48.990;8.346;2023-07-08T09:26:54;100588.41;;;33.33;32.59
26112;BME280;13829;48.990;8.346;2023-07-08T09:29:24;100588.72;;;33.40;33.62
26112;BME280;13829;48.990;8.346;2023-07-08T09:31:52;100583.41;;;33.38;30.26
26112;BME280;13829;48.990;8.346;2023-07-08T09:34:23;100587.28;;;33.36;31.42
26112;BME280;13829;48.990;8.346;2023-07-08T09:36:51;100583.41;;;33.17;31.21
26112;BME280;13829;48.990;8.346;2023-07-08T09:39:20;100584.94;;;33.10;33.10
26112;BME280;13829;48.990;8.346;2023-07-08T09:41:49;100590.94;;;33.04;32.00
26112;BME280;13829;48.990;8.346;2023-07-08T09:44:22;100585.63;;;32.81;31.53
26112;BME280;13829;48.990;8.346;2023-07-08T09:46:53;100583.91;;;32.80;32.48
26112;BME280;13829;48.990;8.346;2023-07-08T09:49:26;100585.28;;;32.74;33.61
26112;BME280;13829;48.990;8.346;2023-07-08T09:51:54;100580.28;;;32.58;32.12
26112;BME280;13829;48.990;8.346;2023-07-08T09:54:25;100582.03;;;32.48;32.75
26112;BME280;13829;48.990;8.346;2023-07-08T09:57:00;100576.16;;;32.31;34.93
26112;BME280;13829;48.990;8.346;2023-07-08T09:59:33;100577.56;;;32.14;34.38
26112;BME280;13829;48.990;8.346;2023-07-08T10:02:28;100583.25;;;32.11;33.49
26112;BME280;13829;48.990;8.346;2023-07-08T10:04:59;100592.81;;;31.94;34.51
26112;BME280;13829;48.990;8.346;2023-07-08T10:07:30;100585.69;;;31.70;34.25
26112;BME280;13829;48.990;8.346;2023-07-08T10:10:04;100591.84;;;31.38;33.80
26112;BME280;13829;48.990;8.346;2023-07-08T10:12:35;100585.03;;;31.10;35.01
26112;BME280;13829;48.990;8.346;2023-07-08T10:15:15;100580.72;;;30.83;38.20
26112;BME280;13829;48.990;8.346;2023-07-08T10:17:46;100576.16;;;30.72;38.40
26112;BME280;13829;48.990;8.346;2023-07-08T10:20:14;100578.78;;;30.50;36.39
26112;BME280;13829;48.990;8.346;2023-07-08T10:22:56;100569.81;;;30.36;38.55
26112;BME280;13829;48.990;8.346;2023-07-08T10:25:33;100578.44;;;30.30;38.42
26112;BME280;13829;48.990;8.346;2023-07-08T10:28:23;100579.94;;;30.34;38.53
26112;BME280;13829;48.990;8.346;2023-07-08T10:31:05;100581.66;;;30.35;39.57
26112;BME280;13829;48.990;8.346;2023-07-08T10:33:53;100579.88;;;30.23;39.70
26112;BME280;13829;48.990;8.346;2023-07-08T10:36:30;100584.47;;;30.09;39.32
26112;BME280;13829;48.990;8.346;2023-07-08T10:39:33;100587.56;;;29.92;40.32
26112;BME280;13829;48.990;8.346;2023-07-08T10:42:19;100580.34;;;29.80;40.84
26112;BME280;13829;48.990;8.346;2023-07-08T10:45:00;100587.06;;;29.74;40.89
26112;BME280;13829;48.990;8.346;2023-07-08T10:47:49;100589.88;;;29.72;40.48
26112;BME280;13829;48.990;8.346;2023-07-08T10:50:44;100587.22;;;29.47;40.75
26112;BME280;13829;48.990;8.346;2023-07-08T10:53:46;100582.56;;;29.49;41.22
26112;BME280;13829;48.990;8.346;2023-07-08T10:56:19;100580.72;;;29.36;40.61
26112;BME280;13829;48.990;8.346;2023-07-08T10:59:05;100583.00;;;29.29;41.37
26112;BME280;13829;48.990;8.346;2023-07-08T11:01:45;100584.94;;;29.27;42.38
26112;BME280;13829;48.990;8.346;2023-07-08T11:04:36;100582.56;;;29.36;42.60
26112;BME280;13829;48.990;8.346;2023-07-08T11:07:16;100576.03;;;29.51;43.42
26112;BME280;13829;48.990;8.346;2023-07-08T11:09:51;100583.22;;;29.39;39.39
26112;BME280;13829;48.990;8.346;2023-07-08T11:12:27;100588.09;;;29.34;40.97
26112;BME280;13829;48.990;8.346;2023-07-08T11:15:04;100580.09;;;29.33;40.13
26112;BME280;13829;48.990;8.346;2023-07-08T11:17:41;100588.22;;;29.33;40.71
26112;BME280;13829;48.990;8.346;2023-07-08T11:20:17;100584.50;;;29.21;40.73
26112;BME280;13829;48.990;8.346;2023-07-08T11:22:52;100580.41;;;29.28;41.34
26112;BME280;13829;48.990;8.346;2023-07-08T11:25:25;100584.41;;;29.35;41.44
26112;BME280;13829;48.990;8.346;2023-07-08T11:27:56;100583.19;;;29.52;41.30
26112;BME280;13829;48.990;8.346;2023-07-08T11:30:30;100584.81;;;29.55;41.11
26112;BME280;13829;48.990;8.346;2023-07-08T11:33:03;100579.72;;;29.50;40.65
26112;BME280;13829;48.990;8.346;2023-07-08T11:35:38;100582.34;;;29.52;40.83
26112;BME280;13829;48.990;8.346;2023-07-08T11:38:14;100567.38;;;29.46;41.00
26112;BME280;13829;48.990;8.346;2023-07-08T11:40:55;100567.50;;;29.32;41.18
26112;BME280;13829;48.990;8.346;2023-07-08T11:43:26;100565.66;;;29.32;42.58
26112;BME280;13829;48.990;8.346;2023-07-08T11:45:56;100558.75;;;29.28;40.82
26112;BME280;13829;48.990;8.346;2023-07-08T11:48:29;100553.09;;;29.31;41.28
26112;BME280;13829;48.990;8.346;2023-07-08T11:50:58;100559.69;;;29.27;41.20
26112;BME280;13829;48.990;8.346;2023-07-08T11:53:48;100547.34;;;29.23;40.91
26112;BME280;13829;48.990;8.346;2023-07-08T11:56:47;100548.41;;;29.20;40.96
26112;BME280;13829;48.990;8.346;2023-07-08T11:59:19;100540.06;;;29.23;38.66
26112;BME280;13829;48.990;8.346;2023-07-08T12:01:53;100534.88;;;29.20;39.54
26112;BME280;13829;48.990;8.346;2023-07-08T12:04:30;100527.16;;;29.53;41.39
26112;BME280;13829;48.990;8.346;2023-07-08T12:07:14;100533.75;;;29.61;38.36
26112;BME280;13829;48.990;8.346;2023-07-08T12:09:49;100535.06;;;29.56;38.95
26112;BME280;13829;48.990;8.346;2023-07-08T12:12:29;100531.06;;;29.49;39.53
26112;BME280;13829;48.990;8.346;2023-07-08T12:15:21;100535.75;;;29.47;39.94
26112;BME280;13829;48.990;8.346;2023-07-08T12:17:52;100535.63;;;29.48;40.19
26112;BME280;13829;48.990;8.346;2023-07-08T12:20:25;100533.03;;;29.47;39.53
26112;BME280;13829;48.990;8.346;2023-07-08T12:22:53;100528.16;;;29.52;40.87
26112;BME280;13829;48.990;8.346;2023-07-08T12:25:28;100538.13;;;29.38;41.21
26112;BME280;13829;48.990;8.346;2023-07-08T12:27:56;100532.19;;;29.33;42.13
26112;BME280;13829;48.990;8.346;2023-07-08T12:30:25;100525.91;;;29.33;41.41
26112;BME280;13829;48.990;8.346;2023-07-08T12:32:54;100527.75;;;29.32;42.12
26112;BME280;13829;48.990;8.346;2023-07-08T12:35:27;100529.03;;;29.39;41.68
26112;BME280;13829;48.990;8.346;2023-07-08T12:38:00;100529.69;;;29.43;40.06
26112;BME280;13829;48.990;8.346;2023-07-08T12:40:30;100524.25;;;29.43;40.86
26112;BME280;13829;48.990;8.346;2023-07-08T12:42:58;100518.81;;;29.56;42.63
26112;BME280;13829;48.990;8.346;2023-07-08T12:45:30;100518.56;;;29.59;39.99
26112;BME280;13829;48.990;8.346;2023-07-08T12:47:57;100522.03;;;29.61;39.67
26112;BME280;13829;48.990;8.346;2023-07-08T12:50:24;100522.69;;;29.65;40.02
26112;BME280;13829;48.990;8.346;2023-07-08T12:52:51;100518.13;;;29.65;38.55
26112;BME280;13829;48.990;8.346;2023-07-08T12:55:18;100510.50;;;29.70;36.77
26112;BME280;13829;48.990;8.346;2023-07-08T12:57:50;100516.38;;;29.64;38.01
26112;BME280;13829;48.990;8.346;2023-07-08T13:00:24;100510.50;;;29.70;39.79
26112;BME280;13829;48.990;8.346;2023-07-08T13:03:00;100503.34;;;29.69;39.75
26112;BME280;13829;48.990;8.346;2023-07-08T13:05:31;100504.69;;;29.64;40.68
26112;BME280;13829;48.990;8.346;2023-07-08T13:07:59;100506.06;;;29.69;41.36
26112;BME280;13829;48.990;8.346;2023-07-08T13:10:29;100502.16;;;29.73;38.67